sensor_id;sensor_type;location;lat;lon;timestamp;P1;durP1;ratioP1;P2;durP2;ratioP2
18302;SDS011;9277;37.980;23.748;2023-04-16T00:00:10;5.38;;;2.53;;
18302;SDS011;9277;37.980;23.748;2023-04-16T00:02:37;5.70;;;2.65;;
18302;SDS011;9277;37.980;23.748;2023-04-16T00:05:04;5.35;;;2.70;;
18302;SDS011;9277;37.980;23.748;2023-04-16T00:07:31;11.80;;;2.45;;
18302;SDS011;9277;37.980;23.748;2023-04-16T00:09:58;9.60;;;2.42;;
18302;SDS011;9277;37.980;23.748;2023-04-16T00:12:26;6.18;;;1.95;;
18302;SDS011;9277;37.980;23.748;2023-04-16T00:14:53;12.77;;;2.50;;
18302;SDS011;9277;37.980;23.748;2023-04-16T00:17:19;11.13;;;2.90;;
18302;SDS011;9277;37.980;23.748;2023-04-16T00:19:46;6.18;;;2.30;;
18302;SDS011;9277;37.980;23.748;2023-04-16T00:22:13;10.75;;;2.90;;
18302;SDS011;9277;37.980;23.748;2023-04-16T00:24:39;6.82;;;2.33;;
18302;SDS011;9277;37.980;23.748;2023-04-16T00:27:06;3.45;;;2.05;;
18302;SDS011;9277;37.980;23.748;2023-04-16T00:29:34;5.95;;;2.40;;
18302;SDS011;9277;37.980;23.748;2023-04-16T00:32:01;8.15;;;2.63;;
18302;SDS011;9277;37.980;23.748;2023-04-16T00:34:28;9.23;;;2.72;;
18302;SDS011;9277;37.980;23.748;2023-04-16T00:36:54;7.53;;;2.50;;
18302;SDS011;9277;37.980;23.748;2023-04-16T00:39:21;5.95;;;2.83;;
18302;SDS011;9277;37.980;23.748;2023-04-16T00:41:48;4.38;;;2.47;;
18302;SDS011;9277;37.980;23.748;2023-04-16T00:44:14;5.97;;;2.17;;
18302;SDS011;9277;37.980;23.748;2023-04-16T00:46:43;7.65;;;2.45;;
18302;SDS011;9277;37.980;23.748;2023-04-16T00:49:10;4.22;;;2.17;;
18302;SDS011;9277;37.980;23.748;2023-04-16T00:51:37;14.30;;;2.42;;
18302;SDS011;9277;37.980;23.748;2023-04-16T00:54:03;5.10;;;2.55;;
18302;SDS011;9277;37.980;23.748;2023-04-16T00:56:32;6.50;;;2.45;;
18302;SDS011;9277;37.980;23.748;2023-04-16T00:58:58;3.63;;;1.85;;
18302;SDS011;9277;37.980;23.748;2023-04-16T01:01:25;7.28;;;2.78;;
18302;SDS011;9277;37.980;23.748;2023-04-16T01:03:53;7.32;;;2.45;;
18302;SDS011;9277;37.980;23.748;2023-04-16T01:06:20;2.80;;;2.05;;
18302;SDS011;9277;37.980;23.748;2023-04-16T01:08:47;19.25;;;4.25;;
18302;SDS011;9277;37.980;23.748;2023-04-16T01:11:14;4.97;;;2.90;;
18302;SDS011;9277;37.980;23.748;2023-04-16T01:13:41;7.60;;;3.22;;
18302;SDS011;9277;37.980;23.748;2023-04-16T01:16:08;9.27;;;2.97;;
18302;SDS011;9277;37.980;23.748;2023-04-16T01:18:34;5.25;;;2.95;;
18302;SDS011;9277;37.980;23.748;2023-04-16T01:21:03;11.30;;;3.60;;
18302;SDS011;9277;37.980;23.748;2023-04-16T01:23:30;8.25;;;3.20;;
18302;SDS011;9277;37.980;23.748;2023-04-16T01:25:57;11.57;;;3.22;;
18302;SDS011;9277;37.980;23.748;2023-04-16T01:28:24;7.90;;;3.05;;
18302;SDS011;9277;37.980;23.748;2023-04-16T01:30:51;7.00;;;2.90;;
18302;SDS011;9277;37.980;23.748;2023-04-16T01:33:17;9.10;;;3.00;;
18302;SDS011;9277;37.980;23.748;2023-04-16T01:35:44;6.78;;;2.88;;
18302;SDS011;9277;37.980;23.748;2023-04-16T01:38:12;10.38;;;3.88;;
18302;SDS011;9277;37.980;23.748;2023-04-16T01:40:39;10.35;;;2.85;;
18302;SDS011;9277;37.980;23.748;2023-04-16T01:43:06;8.93;;;2.80;;
18302;SDS011;9277;37.980;23.748;2023-04-16T01:45:33;8.00;;;2.63;;
18302;SDS011;9277;37.980;23.748;2023-04-16T01:48:00;12.10;;;2.47;;
18302;SDS011;9277;37.980;23.748;2023-04-16T01:50:27;9.35;;;2.30;;
18302;SDS011;9277;37.980;23.748;2023-04-16T01:52:55;3.17;;;2.15;;
18302;SDS011;9277;37.980;23.748;2023-04-16T01:55:23;7.75;;;1.83;;
18302;SDS011;9277;37.980;23.748;2023-04-16T01:57:51;11.27;;;2.75;;
18302;SDS011;9277;37.980;23.748;2023-04-16T02:00:17;4.97;;;1.80;;
18302;SDS011;9277;37.980;23.748;2023-04-16T02:02:44;4.30;;;1.77;;
18302;SDS011;9277;37.980;23.748;2023-04-16T02:05:11;6.95;;;1.92;;
18302;SDS011;9277;37.980;23.748;2023-04-16T02:07:38;8.52;;;2.20;;
18302;SDS011;9277;37.980;23.748;2023-04-16T02:10:05;2.53;;;1.35;;
18302;SDS011;9277;37.980;23.748;2023-04-16T02:12:35;3.17;;;1.80;;
18302;SDS011;9277;37.980;23.748;2023-04-16T02:15:02;9.90;;;2.53;;
18302;SDS011;9277;37.980;23.748;2023-04-16T02:17:29;7.22;;;1.90;;
18302;SDS011;9277;37.980;23.748;2023-04-16T02:19:56;6.70;;;2.30;;
18302;SDS011;9277;37.980;23.748;2023-04-16T02:22:23;13.10;;;1.88;;
18302;SDS011;9277;37.980;23.748;2023-04-16T02:24:50;3.67;;;1.90;;
18302;SDS011;9277;37.980;23.748;2023-04-16T02:27:16;2.17;;;1.88;;
18302;SDS011;9277;37.980;23.748;2023-04-16T02:29:44;10.88;;;2.40;;
18302;SDS011;9277;37.980;23.748;2023-04-16T02:32:11;6.90;;;2.75;;
18302;SDS011;9277;37.980;23.748;2023-04-16T02:34:38;6.13;;;2.55;;
18302;SDS011;9277;37.980;23.748;2023-04-16T02:37:05;7.60;;;2.13;;
18302;SDS011;9277;37.980;23.748;2023-04-16T02:39:32;5.75;;;2.03;;
18302;SDS011;9277;37.980;23.748;2023-04-16T02:41:59;5.38;;;1.70;;
18302;SDS011;9277;37.980;23.748;2023-04-16T02:44:26;3.42;;;1.75;;
18302;SDS011;9277;37.980;23.748;2023-04-16T02:46:54;7.47;;;1.77;;
18302;SDS011;9277;37.980;23.748;2023-04-16T02:49:21;6.45;;;1.58;;
18302;SDS011;9277;37.980;23.748;2023-04-16T02:51:48;6.05;;;1.75;;
18302;SDS011;9277;37.980;23.748;2023-04-16T02:54:15;2.83;;;1.60;;
18302;SDS011;9277;37.980;23.748;2023-04-16T02:56:42;5.00;;;1.35;;
18302;SDS011;9277;37.980;23.748;2023-04-16T02:59:09;6.75;;;1.85;;
18302;SDS011;9277;37.980;23.748;2023-04-16T03:01:35;6.05;;;2.05;;
18302;SDS011;9277;37.980;23.748;2023-04-16T03:04:04;2.92;;;1.30;;
18302;SDS011;9277;37.980;23.748;2023-04-16T03:06:30;8.43;;;1.10;;
18302;SDS011;9277;37.980;23.748;2023-04-16T03:08:57;3.40;;;1.23;;
18302;SDS011;9277;37.980;23.748;2023-04-16T03:11:24;3.22;;;1.17;;
18302;SDS011;9277;37.980;23.748;2023-04-16T03:13:50;5.22;;;1.40;;
18302;SDS011;9277;37.980;23.748;2023-04-16T03:16:18;1.75;;;1.15;;
18302;SDS011;9277;37.980;23.748;2023-04-16T03:18:44;2.35;;;0.95;;
18302;SDS011;9277;37.980;23.748;2023-04-16T03:21:12;5.20;;;1.00;;
18302;SDS011;9277;37.980;23.748;2023-04-16T03:23:39;8.32;;;1.60;;
18302;SDS011;9277;37.980;23.748;2023-04-16T03:26:06;5.20;;;1.50;;
18302;SDS011;9277;37.980;23.748;2023-04-16T03:28:32;4.68;;;1.45;;
18302;SDS011;9277;37.980;23.748;2023-04-16T03:30:59;1.63;;;1.10;;
18302;SDS011;9277;37.980;23.748;2023-04-16T03:33:26;3.08;;;1.23;;
18302;SDS011;9277;37.980;23.748;2023-04-16T03:35:55;3.45;;;1.17;;
18302;SDS011;9277;37.980;23.748;2023-04-16T03:38:24;3.08;;;1.50;;
18302;SDS011;9277;37.980;23.748;2023-04-16T03:40:51;5.82;;;1.45;;
18302;SDS011;9277;37.980;23.748;2023-04-16T03:43:17;4.28;;;1.40;;
18302;SDS011;9277;37.980;23.748;2023-04-16T03:45:44;8.45;;;1.75;;
18302;SDS011;9277;37.980;23.748;2023-04-16T03:48:11;3.97;;;1.80;;
18302;SDS011;9277;37.980;23.748;2023-04-16T03:50:38;6.65;;;1.55;;
18302;SDS011;9277;37.980;23.748;2023-04-16T03:53:04;5.18;;;1.98;;
18302;SDS011;9277;37.980;23.748;2023-04-16T03:55:33;4.43;;;1.50;;
18302;SDS011;9277;37.980;23.748;2023-04-16T03:58:00;2.83;;;1.75;;
18302;SDS011;9277;37.980;23.748;2023-04-16T04:00:29;6.78;;;1.70;;
18302;SDS011;9277;37.980;23.748;2023-04-16T04:02:56;3.38;;;1.80;;
18302;SDS011;9277;37.980;23.748;2023-04-16T04:05:23;3.75;;;1.40;;
18302;SDS011;9277;37.980;23.748;2023-04-16T04:07:49;2.42;;;1.40;;
18302;SDS011;9277;37.980;23.748;2023-04-16T04:10:16;3.55;;;1.40;;
18302;SDS011;9277;37.980;23.748;2023-04-16T04:12:44;3.65;;;1.85;;
18302;SDS011;9277;37.980;23.748;2023-04-16T04:15:11;4.93;;;1.52;;
18302;SDS011;9277;37.980;23.748;2023-04-16T04:17:37;7.45;;;1.42;;
18302;SDS011;9277;37.980;23.748;2023-04-16T04:20:05;3.13;;;1.40;;
18302;SDS011;9277;37.980;23.748;2023-04-16T04:22:31;7.00;;;2.00;;
18302;SDS011;9277;37.980;23.748;2023-04-16T04:24:58;7.93;;;1.67;;
18302;SDS011;9277;37.980;23.748;2023-04-16T04:27:25;3.47;;;1.27;;
18302;SDS011;9277;37.980;23.748;2023-04-16T04:29:53;4.55;;;1.90;;
18302;SDS011;9277;37.980;23.748;2023-04-16T04:32:20;1.83;;;1.38;;
18302;SDS011;9277;37.980;23.748;2023-04-16T04:34:47;1.85;;;1.20;;
18302;SDS011;9277;37.980;23.748;2023-04-16T04:37:13;3.72;;;1.30;;
18302;SDS011;9277;37.980;23.748;2023-04-16T04:39:40;4.45;;;1.75;;
18302;SDS011;9277;37.980;23.748;2023-04-16T04:42:07;5.03;;;1.90;;
18302;SDS011;9277;37.980;23.748;2023-04-16T04:44:34;6.63;;;1.80;;
18302;SDS011;9277;37.980;23.748;2023-04-16T04:47:02;4.82;;;1.67;;
18302;SDS011;9277;37.980;23.748;2023-04-16T04:49:28;6.25;;;1.77;;
18302;SDS011;9277;37.980;23.748;2023-04-16T04:51:56;10.25;;;2.03;;
18302;SDS011;9277;37.980;23.748;2023-04-16T04:54:22;7.43;;;2.47;;
18302;SDS011;9277;37.980;23.748;2023-04-16T04:56:49;5.18;;;1.95;;
18302;SDS011;9277;37.980;23.748;2023-04-16T04:59:16;6.43;;;1.70;;
18302;SDS011;9277;37.980;23.748;2023-04-16T05:01:43;3.80;;;1.65;;
18302;SDS011;9277;37.980;23.748;2023-04-16T05:04:11;2.45;;;1.60;;
18302;SDS011;9277;37.980;23.748;2023-04-16T05:06:38;5.22;;;1.92;;
18302;SDS011;9277;37.980;23.748;2023-04-16T05:09:05;3.42;;;1.50;;
18302;SDS011;9277;37.980;23.748;2023-04-16T05:11:35;2.65;;;2.05;;
18302;SDS011;9277;37.980;23.748;2023-04-16T05:14:02;6.25;;;2.03;;
18302;SDS011;9277;37.980;23.748;2023-04-16T05:16:29;4.55;;;2.03;;
18302;SDS011;9277;37.980;23.748;2023-04-16T05:18:55;5.65;;;2.05;;
18302;SDS011;9277;37.980;23.748;2023-04-16T05:21:24;5.97;;;2.13;;
18302;SDS011;9277;37.980;23.748;2023-04-16T05:23:51;6.00;;;2.15;;
18302;SDS011;9277;37.980;23.748;2023-04-16T05:26:18;8.15;;;1.85;;
18302;SDS011;9277;37.980;23.748;2023-04-16T05:28:45;8.55;;;2.03;;
18302;SDS011;9277;37.980;23.748;2023-04-16T05:31:12;4.55;;;1.92;;
18302;SDS011;9277;37.980;23.748;2023-04-16T05:33:38;6.00;;;2.15;;
18302;SDS011;9277;37.980;23.748;2023-04-16T05:36:05;7.05;;;2.13;;
18302;SDS011;9277;37.980;23.748;2023-04-16T05:38:33;8.68;;;2.58;;
18302;SDS011;9277;37.980;23.748;2023-04-16T05:41:00;4.40;;;2.55;;
18302;SDS011;9277;37.980;23.748;2023-04-16T05:43:27;4.82;;;2.25;;
18302;SDS011;9277;37.980;23.748;2023-04-16T05:45:53;5.50;;;2.22;;
18302;SDS011;9277;37.980;23.748;2023-04-16T05:48:20;10.05;;;2.17;;
18302;SDS011;9277;37.980;23.748;2023-04-16T05:50:47;7.40;;;2.30;;
18302;SDS011;9277;37.980;23.748;2023-04-16T05:53:14;6.90;;;2.58;;
18302;SDS011;9277;37.980;23.748;2023-04-16T05:55:44;6.68;;;2.40;;
18302;SDS011;9277;37.980;23.748;2023-04-16T05:58:11;6.18;;;2.47;;
18302;SDS011;9277;37.980;23.748;2023-04-16T06:00:38;10.32;;;2.47;;
18302;SDS011;9277;37.980;23.748;2023-04-16T06:03:04;7.80;;;2.58;;
18302;SDS011;9277;37.980;23.748;2023-04-16T06:05:31;9.80;;;2.80;;
18302;SDS011;9277;37.980;23.748;2023-04-16T06:07:58;8.20;;;3.15;;
18302;SDS011;9277;37.980;23.748;2023-04-16T06:10:24;8.35;;;2.88;;
18302;SDS011;9277;37.980;23.748;2023-04-16T06:12:53;6.85;;;3.15;;
18302;SDS011;9277;37.980;23.748;2023-04-16T06:15:19;8.65;;;3.20;;
18302;SDS011;9277;37.980;23.748;2023-04-16T06:17:48;7.32;;;2.75;;
18302;SDS011;9277;37.980;23.748;2023-04-16T06:20:15;9.13;;;2.70;;
18302;SDS011;9277;37.980;23.748;2023-04-16T06:22:41;4.78;;;2.72;;
18302;SDS011;9277;37.980;23.748;2023-04-16T06:25:08;3.80;;;2.30;;
18302;SDS011;9277;37.980;23.748;2023-04-16T06:27:35;5.97;;;2.63;;
18302;SDS011;9277;37.980;23.748;2023-04-16T06:30:04;6.57;;;2.10;;
18302;SDS011;9277;37.980;23.748;2023-04-16T06:32:30;6.68;;;2.53;;
18302;SDS011;9277;37.980;23.748;2023-04-16T06:34:57;3.30;;;2.22;;
18302;SDS011;9277;37.980;23.748;2023-04-16T06:37:24;3.40;;;1.65;;
18302;SDS011;9277;37.980;23.748;2023-04-16T06:39:51;7.53;;;2.42;;
18302;SDS011;9277;37.980;23.748;2023-04-16T06:42:17;4.82;;;1.92;;
18302;SDS011;9277;37.980;23.748;2023-04-16T06:44:44;5.68;;;1.75;;
18302;SDS011;9277;37.980;23.748;2023-04-16T06:47:13;2.00;;;1.50;;
18302;SDS011;9277;37.980;23.748;2023-04-16T06:49:40;5.03;;;1.95;;
18302;SDS011;9277;37.980;23.748;2023-04-16T06:52:07;3.45;;;1.83;;
18302;SDS011;9277;37.980;23.748;2023-04-16T06:54:33;3.35;;;1.70;;
18302;SDS011;9277;37.980;23.748;2023-04-16T06:57:00;6.18;;;1.77;;
18302;SDS011;9277;37.980;23.748;2023-04-16T06:59:27;6.07;;;1.83;;
18302;SDS011;9277;37.980;23.748;2023-04-16T07:01:54;6.20;;;1.60;;
18302;SDS011;9277;37.980;23.748;2023-04-16T07:04:22;4.80;;;1.92;;
18302;SDS011;9277;37.980;23.748;2023-04-16T07:06:48;5.65;;;1.50;;
18302;SDS011;9277;37.980;23.748;2023-04-16T07:09:15;4.50;;;1.60;;
18302;SDS011;9277;37.980;23.748;2023-04-16T07:11:43;7.78;;;1.90;;
18302;SDS011;9277;37.980;23.748;2023-04-16T07:14:10;3.53;;;2.05;;
18302;SDS011;9277;37.980;23.748;2023-04-16T07:16:36;5.00;;;2.10;;
18302;SDS011;9277;37.980;23.748;2023-04-16T07:19:04;5.32;;;2.78;;
18302;SDS011;9277;37.980;23.748;2023-04-16T07:21:32;5.82;;;2.35;;
18302;SDS011;9277;37.980;23.748;2023-04-16T07:23:59;5.15;;;1.90;;
18302;SDS011;9277;37.980;23.748;2023-04-16T07:26:26;6.60;;;2.10;;
18302;SDS011;9277;37.980;23.748;2023-04-16T07:28:53;7.43;;;2.35;;
18302;SDS011;9277;37.980;23.748;2023-04-16T07:31:20;3.08;;;2.03;;
18302;SDS011;9277;37.980;23.748;2023-04-16T07:33:46;4.82;;;2.03;;
18302;SDS011;9277;37.980;23.748;2023-04-16T07:36:13;2.65;;;1.88;;
18302;SDS011;9277;37.980;23.748;2023-04-16T07:38:41;2.60;;;1.40;;
18302;SDS011;9277;37.980;23.748;2023-04-16T07:41:08;7.53;;;2.20;;
18302;SDS011;9277;37.980;23.748;2023-04-16T07:43:35;5.78;;;2.00;;
18302;SDS011;9277;37.980;23.748;2023-04-16T07:46:02;4.85;;;1.50;;
18302;SDS011;9277;37.980;23.748;2023-04-16T07:48:28;3.17;;;2.10;;
18302;SDS011;9277;37.980;23.748;2023-04-16T07:50:55;2.05;;;1.65;;
18302;SDS011;9277;37.980;23.748;2023-04-16T07:53:22;8.30;;;2.03;;
18302;SDS011;9277;37.980;23.748;2023-04-16T07:55:50;2.65;;;1.60;;
18302;SDS011;9277;37.980;23.748;2023-04-16T07:58:17;5.00;;;2.00;;
18302;SDS011;9277;37.980;23.748;2023-04-16T08:00:44;2.10;;;1.65;;
18302;SDS011;9277;37.980;23.748;2023-04-16T08:03:11;7.07;;;2.28;;
18302;SDS011;9277;37.980;23.748;2023-04-16T08:05:37;9.30;;;2.20;;
18302;SDS011;9277;37.980;23.748;2023-04-16T08:08:04;6.05;;;2.28;;
18302;SDS011;9277;37.980;23.748;2023-04-16T08:10:31;7.13;;;2.25;;
18302;SDS011;9277;37.980;23.748;2023-04-16T08:13:00;5.82;;;2.00;;
18302;SDS011;9277;37.980;23.748;2023-04-16T08:15:27;2.50;;;2.08;;
18302;SDS011;9277;37.980;23.748;2023-04-16T08:17:54;2.83;;;2.05;;
18302;SDS011;9277;37.980;23.748;2023-04-16T08:20:20;1.70;;;1.58;;
18302;SDS011;9277;37.980;23.748;2023-04-16T08:22:47;6.85;;;1.90;;
18302;SDS011;9277;37.980;23.748;2023-04-16T08:25:14;7.47;;;1.95;;
18302;SDS011;9277;37.980;23.748;2023-04-16T08:27:41;6.50;;;2.47;;
18302;SDS011;9277;37.980;23.748;2023-04-16T08:30:09;3.53;;;2.10;;
18302;SDS011;9277;37.980;23.748;2023-04-16T08:32:36;3.85;;;1.60;;
18302;SDS011;9277;37.980;23.748;2023-04-16T08:35:03;3.45;;;1.88;;
18302;SDS011;9277;37.980;23.748;2023-04-16T08:37:30;2.33;;;1.92;;
18302;SDS011;9277;37.980;23.748;2023-04-16T08:39:56;4.07;;;2.50;;
18302;SDS011;9277;37.980;23.748;2023-04-16T08:42:26;8.38;;;2.22;;
18302;SDS011;9277;37.980;23.748;2023-04-16T08:44:57;8.07;;;2.70;;
18302;SDS011;9277;37.980;23.748;2023-04-16T08:47:29;4.28;;;2.13;;
18302;SDS011;9277;37.980;23.748;2023-04-16T08:49:58;2.83;;;1.80;;
18302;SDS011;9277;37.980;23.748;2023-04-16T08:52:26;6.35;;;3.20;;
18302;SDS011;9277;37.980;23.748;2023-04-16T08:54:55;5.22;;;2.35;;
18302;SDS011;9277;37.980;23.748;2023-04-16T08:57:28;10.68;;;2.63;;
18302;SDS011;9277;37.980;23.748;2023-04-16T08:59:56;8.07;;;2.63;;
18302;SDS011;9277;37.980;23.748;2023-04-16T09:02:23;5.35;;;2.00;;
18302;SDS011;9277;37.980;23.748;2023-04-16T09:04:52;3.67;;;2.53;;
18302;SDS011;9277;37.980;23.748;2023-04-16T09:07:20;4.05;;;2.10;;
18302;SDS011;9277;37.980;23.748;2023-04-16T09:09:47;4.75;;;2.55;;
18302;SDS011;9277;37.980;23.748;2023-04-16T09:12:14;8.65;;;3.00;;
18302;SDS011;9277;37.980;23.748;2023-04-16T09:14:42;8.88;;;3.00;;
18302;SDS011;9277;37.980;23.748;2023-04-16T09:17:09;7.53;;;3.00;;
18302;SDS011;9277;37.980;23.748;2023-04-16T09:19:36;9.45;;;3.70;;
18302;SDS011;9277;37.980;23.748;2023-04-16T09:22:04;8.15;;;2.60;;
18302;SDS011;9277;37.980;23.748;2023-04-16T09:24:31;9.15;;;3.60;;
18302;SDS011;9277;37.980;23.748;2023-04-16T09:26:59;8.23;;;3.70;;
18302;SDS011;9277;37.980;23.748;2023-04-16T09:29:33;4.03;;;2.20;;
18302;SDS011;9277;37.980;23.748;2023-04-16T09:32:00;6.35;;;2.78;;
18302;SDS011;9277;37.980;23.748;2023-04-16T09:34:27;6.57;;;3.75;;
18302;SDS011;9277;37.980;23.748;2023-04-16T09:36:54;17.38;;;4.60;;
18302;SDS011;9277;37.980;23.748;2023-04-16T09:39:22;7.25;;;3.03;;
18302;SDS011;9277;37.980;23.748;2023-04-16T09:41:49;5.25;;;2.78;;
18302;SDS011;9277;37.980;23.748;2023-04-16T09:44:18;8.60;;;2.75;;
18302;SDS011;9277;37.980;23.748;2023-04-16T09:46:45;6.20;;;2.47;;
18302;SDS011;9277;37.980;23.748;2023-04-16T09:49:12;6.80;;;2.63;;
18302;SDS011;9277;37.980;23.748;2023-04-16T09:51:39;4.93;;;2.50;;
18302;SDS011;9277;37.980;23.748;2023-04-16T09:54:06;5.00;;;3.28;;
18302;SDS011;9277;37.980;23.748;2023-04-16T09:56:40;6.22;;;3.05;;
18302;SDS011;9277;37.980;23.748;2023-04-16T09:59:07;5.90;;;2.60;;
18302;SDS011;9277;37.980;23.748;2023-04-16T10:01:35;6.65;;;2.90;;
18302;SDS011;9277;37.980;23.748;2023-04-16T10:04:02;7.68;;;3.75;;
18302;SDS011;9277;37.980;23.748;2023-04-16T10:06:31;7.70;;;4.07;;
18302;SDS011;9277;37.980;23.748;2023-04-16T10:08:58;8.27;;;2.95;;
18302;SDS011;9277;37.980;23.748;2023-04-16T10:11:25;8.32;;;3.50;;
18302;SDS011;9277;37.980;23.748;2023-04-16T10:13:54;5.63;;;3.25;;
18302;SDS011;9277;37.980;23.748;2023-04-16T10:16:21;8.35;;;4.03;;
18302;SDS011;9277;37.980;23.748;2023-04-16T10:18:47;5.20;;;2.30;;
18302;SDS011;9277;37.980;23.748;2023-04-16T10:21:14;6.22;;;3.60;;
18302;SDS011;9277;37.980;23.748;2023-04-16T10:23:41;5.15;;;2.88;;
18302;SDS011;9277;37.980;23.748;2023-04-16T10:26:08;8.88;;;4.47;;
18302;SDS011;9277;37.980;23.748;2023-04-16T10:28:35;7.95;;;3.22;;
18302;SDS011;9277;37.980;23.748;2023-04-16T10:31:04;17.88;;;5.93;;
18302;SDS011;9277;37.980;23.748;2023-04-16T10:33:32;5.70;;;2.85;;
18302;SDS011;9277;37.980;23.748;2023-04-16T10:36:09;10.82;;;3.30;;
18302;SDS011;9277;37.980;23.748;2023-04-16T10:38:38;9.93;;;3.72;;
18302;SDS011;9277;37.980;23.748;2023-04-16T10:41:05;6.75;;;3.42;;
18302;SDS011;9277;37.980;23.748;2023-04-16T10:43:36;5.25;;;3.30;;
18302;SDS011;9277;37.980;23.748;2023-04-16T10:48:47;7.13;;;4.47;;
18302;SDS011;9277;37.980;23.748;2023-04-16T10:54:02;7.82;;;3.00;;
18302;SDS011;9277;37.980;23.748;2023-04-16T10:56:31;11.45;;;3.80;;
18302;SDS011;9277;37.980;23.748;2023-04-16T10:58:58;7.55;;;3.33;;
18302;SDS011;9277;37.980;23.748;2023-04-16T11:01:30;4.45;;;3.13;;
18302;SDS011;9277;37.980;23.748;2023-04-16T11:04:00;10.13;;;3.30;;
18302;SDS011;9277;37.980;23.748;2023-04-16T11:06:27;7.75;;;3.20;;
18302;SDS011;9277;37.980;23.748;2023-04-16T11:08:54;7.65;;;3.05;;
18302;SDS011;9277;37.980;23.748;2023-04-16T11:11:20;7.72;;;3.30;;
18302;SDS011;9277;37.980;23.748;2023-04-16T11:13:47;4.38;;;3.00;;
18302;SDS011;9277;37.980;23.748;2023-04-16T11:16:14;6.25;;;3.00;;
18302;SDS011;9277;37.980;23.748;2023-04-16T11:18:41;4.40;;;3.00;;
18302;SDS011;9277;37.980;23.748;2023-04-16T11:21:12;9.13;;;2.65;;
18302;SDS011;9277;37.980;23.748;2023-04-16T11:23:48;10.23;;;4.68;;
18302;SDS011;9277;37.980;23.748;2023-04-16T11:26:24;11.15;;;3.50;;
18302;SDS011;9277;37.980;23.748;2023-04-16T11:28:52;6.53;;;3.35;;
18302;SDS011;9277;37.980;23.748;2023-04-16T11:31:19;5.43;;;2.67;;
18302;SDS011;9277;37.980;23.748;2023-04-16T11:33:45;5.28;;;2.50;;
18302;SDS011;9277;37.980;23.748;2023-04-16T11:36:13;5.90;;;2.28;;
18302;SDS011;9277;37.980;23.748;2023-04-16T11:38:40;10.90;;;2.50;;
18302;SDS011;9277;37.980;23.748;2023-04-16T11:41:07;7.15;;;3.05;;
18302;SDS011;9277;37.980;23.748;2023-04-16T11:43:34;7.93;;;2.80;;
18302;SDS011;9277;37.980;23.748;2023-04-16T11:46:01;6.95;;;2.65;;
18302;SDS011;9277;37.980;23.748;2023-04-16T11:51:10;11.65;;;2.83;;
18302;SDS011;9277;37.980;23.748;2023-04-16T11:53:43;8.43;;;3.38;;
18302;SDS011;9277;37.980;23.748;2023-04-16T11:56:10;8.65;;;3.78;;
18302;SDS011;9277;37.980;23.748;2023-04-16T11:58:37;7.70;;;2.58;;
18302;SDS011;9277;37.980;23.748;2023-04-16T12:01:03;7.65;;;3.17;;
18302;SDS011;9277;37.980;23.748;2023-04-16T12:03:37;8.13;;;4.05;;
18302;SDS011;9277;37.980;23.748;2023-04-16T12:06:08;4.20;;;2.38;;
18302;SDS011;9277;37.980;23.748;2023-04-16T12:08:35;3.90;;;2.65;;
18302;SDS011;9277;37.980;23.748;2023-04-16T12:11:03;3.97;;;2.05;;
18302;SDS011;9277;37.980;23.748;2023-04-16T12:13:30;5.75;;;2.42;;
18302;SDS011;9277;37.980;23.748;2023-04-16T12:16:11;5.13;;;2.35;;
18302;SDS011;9277;37.980;23.748;2023-04-16T12:18:44;6.65;;;2.80;;
18302;SDS011;9277;37.980;23.748;2023-04-16T12:21:23;7.80;;;2.70;;
18302;SDS011;9277;37.980;23.748;2023-04-16T12:23:52;3.78;;;2.13;;
18302;SDS011;9277;37.980;23.748;2023-04-16T12:26:20;3.35;;;2.17;;
18302;SDS011;9277;37.980;23.748;2023-04-16T12:28:47;2.78;;;2.10;;
18302;SDS011;9277;37.980;23.748;2023-04-16T12:31:14;8.65;;;2.70;;
18302;SDS011;9277;37.980;23.748;2023-04-16T12:33:40;9.32;;;2.42;;
18302;SDS011;9277;37.980;23.748;2023-04-16T12:36:17;7.13;;;2.25;;
18302;SDS011;9277;37.980;23.748;2023-04-16T12:38:43;6.72;;;2.95;;
18302;SDS011;9277;37.980;23.748;2023-04-16T12:41:10;7.78;;;2.17;;
18302;SDS011;9277;37.980;23.748;2023-04-16T12:43:38;5.97;;;2.10;;
18302;SDS011;9277;37.980;23.748;2023-04-16T12:46:05;5.82;;;2.05;;
18302;SDS011;9277;37.980;23.748;2023-04-16T12:48:32;5.32;;;2.20;;
18302;SDS011;9277;37.980;23.748;2023-04-16T12:50:59;9.75;;;2.45;;
18302;SDS011;9277;37.980;23.748;2023-04-16T12:53:26;4.05;;;1.77;;
18302;SDS011;9277;37.980;23.748;2023-04-16T12:55:52;1.98;;;1.60;;
18302;SDS011;9277;37.980;23.748;2023-04-16T12:58:19;2.15;;;1.40;;
18302;SDS011;9277;37.980;23.748;2023-04-16T13:00:47;3.35;;;1.40;;
18302;SDS011;9277;37.980;23.748;2023-04-16T13:03:14;2.50;;;1.88;;
18302;SDS011;9277;37.980;23.748;2023-04-16T13:05:41;3.13;;;1.60;;
18302;SDS011;9277;37.980;23.748;2023-04-16T13:08:07;4.40;;;1.60;;
18302;SDS011;9277;37.980;23.748;2023-04-16T13:10:34;5.38;;;2.22;;
18302;SDS011;9277;37.980;23.748;2023-04-16T13:13:01;4.13;;;1.70;;
18302;SDS011;9277;37.980;23.748;2023-04-16T13:15:27;6.80;;;1.48;;
18302;SDS011;9277;37.980;23.748;2023-04-16T13:17:55;6.93;;;1.75;;
18302;SDS011;9277;37.980;23.748;2023-04-16T13:20:22;2.05;;;1.52;;
18302;SDS011;9277;37.980;23.748;2023-04-16T13:22:49;3.63;;;1.63;;
18302;SDS011;9277;37.980;23.748;2023-04-16T13:25:16;1.30;;;1.20;;
18302;SDS011;9277;37.980;23.748;2023-04-16T13:27:42;4.68;;;1.67;;
18302;SDS011;9277;37.980;23.748;2023-04-16T13:30:10;6.30;;;1.30;;
18302;SDS011;9277;37.980;23.748;2023-04-16T13:32:36;2.78;;;1.42;;
18302;SDS011;9277;37.980;23.748;2023-04-16T13:35:08;3.33;;;1.33;;
18302;SDS011;9277;37.980;23.748;2023-04-16T13:37:36;3.75;;;1.27;;
18302;SDS011;9277;37.980;23.748;2023-04-16T13:40:03;3.28;;;1.30;;
18302;SDS011;9277;37.980;23.748;2023-04-16T13:42:29;3.72;;;1.63;;
18302;SDS011;9277;37.980;23.748;2023-04-16T13:44:56;5.72;;;1.58;;
18302;SDS011;9277;37.980;23.748;2023-04-16T13:47:23;1.50;;;1.30;;
18302;SDS011;9277;37.980;23.748;2023-04-16T13:49:50;3.53;;;1.65;;
18302;SDS011;9277;37.980;23.748;2023-04-16T13:52:18;2.92;;;1.52;;
18302;SDS011;9277;37.980;23.748;2023-04-16T13:54:45;3.22;;;1.65;;
18302;SDS011;9277;37.980;23.748;2023-04-16T13:57:12;2.63;;;1.40;;
18302;SDS011;9277;37.980;23.748;2023-04-16T13:59:39;3.47;;;1.10;;
18302;SDS011;9277;37.980;23.748;2023-04-16T14:02:05;2.70;;;1.20;;
18302;SDS011;9277;37.980;23.748;2023-04-16T14:04:32;2.70;;;1.20;;
18302;SDS011;9277;37.980;23.748;2023-04-16T14:06:59;1.15;;;1.05;;
18302;SDS011;9277;37.980;23.748;2023-04-16T14:09:27;1.65;;;1.10;;
18302;SDS011;9277;37.980;23.748;2023-04-16T14:11:54;1.38;;;1.10;;
18302;SDS011;9277;37.980;23.748;2023-04-16T14:14:21;0.75;;;0.75;;
18302;SDS011;9277;37.980;23.748;2023-04-16T14:16:48;2.28;;;1.38;;
18302;SDS011;9277;37.980;23.748;2023-04-16T14:19:15;3.65;;;1.17;;
18302;SDS011;9277;37.980;23.748;2023-04-16T14:21:42;1.88;;;1.00;;
18302;SDS011;9277;37.980;23.748;2023-04-16T14:24:08;2.80;;;1.05;;
18302;SDS011;9277;37.980;23.748;2023-04-16T14:26:37;2.30;;;1.35;;
18302;SDS011;9277;37.980;23.748;2023-04-16T14:29:04;1.65;;;0.90;;
18302;SDS011;9277;37.980;23.748;2023-04-16T14:31:30;1.35;;;1.17;;
18302;SDS011;9277;37.980;23.748;2023-04-16T14:33:57;2.65;;;1.05;;
18302;SDS011;9277;37.980;23.748;2023-04-16T14:36:24;1.55;;;1.20;;
18302;SDS011;9277;37.980;23.748;2023-04-16T14:38:51;2.53;;;1.27;;
18302;SDS011;9277;37.980;23.748;2023-04-16T14:41:18;2.33;;;1.30;;
18302;SDS011;9277;37.980;23.748;2023-04-16T14:43:46;1.85;;;1.25;;
18302;SDS011;9277;37.980;23.748;2023-04-16T14:46:13;1.63;;;1.20;;
18302;SDS011;9277;37.980;23.748;2023-04-16T14:48:41;1.33;;;1.20;;
18302;SDS011;9277;37.980;23.748;2023-04-16T14:51:08;1.08;;;1.05;;
18302;SDS011;9277;37.980;23.748;2023-04-16T14:53:35;2.15;;;1.13;;